Bookmark and Share
Track history (hours):
 

I. Lorraine

More information available from US FCC via Universal Licensing System.

Last reported at 2012-Jun-10 23:32 UTC. Time now 2014-Apr-24 09:10 UTC.
Position N 41°00' W 072°33'.
Warning: this ship's position is years out of date!

Length 22 m; draft 2 m.

Type: Pleasure craft. MMSI: 367035080.

NotesDate/timePositionNaut miles runAvg speedWind from/ knotsBaromVisibWave heightAir tempDewpointWater temp
2012-Jun-10 23:32N 41°00' W 072°33'7 6.9
2012-Jun-10 22:33N 41°05' W 072°27'2120.9
2012-Jun-10 21:34N 41°06' W 071°59'3 2.6
2012-Jun-10 20:31N 41°04' W 071°56'5 5.3
2012-Jun-10 19:32N 41°06' W 071°50'1 1.1
2012-Jun-10 18:31N 41°05' W 071°50'1 1.5
2012-Jun-10 17:33N 41°04' W 071°51'1 0.8
2012-Jun-10 16:33N 41°03' W 071°52'2 2.2
2012-Jun-10 15:33N 41°02' W 071°54'3 3.4
2012-Jun-10 14:33N 41°05' W 071°52'2 0.1
2012-Jun-09 19:33N 41°04' W 071°51'0 0.4
2012-Jun-09 18:31N 41°04' W 071°51'1212.5
2012-Jun-09 17:33N 41°08' W 072°06'1 1.0
2012-Jun-09 16:31N 41°08' W 072°07'1818.7
2012-Jun-09 15:33N 41°04' W 072°30'4 4.3
2012-Jun-09 14:33N 41°00' W 072°33'  
2012-Jun-04 01:29N 41°00' W 072°33'0 0.0
2012-Jun-04 00:32N 41°00' W 072°33'0 0.0
2012-Jun-03 23:32N 41°00' W 072°33'0 0.0
2012-Jun-03 22:32N 41°00' W 072°33'0 0.0
2012-Jun-03 21:31N 41°00' W 072°33'0 0.0
2012-Jun-03 20:31N 41°00' W 072°33'1 0.5
2012-Jun-03 19:33N 41°01' W 072°33'3 2.8
2012-Jun-03 18:32N 41°03' W 072°32'9 8.0
2012-Jun-03 17:28N 41°00' W 072°42'0 0.0
2012-Jun-03 16:33N 41°00' W 072°42'1111.2
2012-Jun-03 15:33N 40°59' W 072°57'0 0.3
2012-Jun-03 14:33N 40°58' W 072°56'1111.3
2012-Jun-03 13:33N 41°00' W 072°42'0 0.2
2012-Jun-03 12:33N 41°00' W 072°42'7 6.9
2012-Jun-03 11:33N 41°00' W 072°33'  

Dump ship's entire track history

sailing weather and tide predictions

I. Lorraine — WDC5055 — position and weather